createdAt,value
2018-06-17T00:01:38.178Z,14.90
2018-06-17T00:04:06.398Z,14.90
2018-06-17T00:06:34.601Z,14.90
2018-06-17T00:09:02.861Z,14.80
2018-06-17T00:11:31.026Z,14.90
2018-06-17T00:13:59.236Z,14.90
2018-06-17T00:16:27.471Z,14.90
2018-06-17T00:18:55.692Z,14.90
2018-06-17T00:21:23.892Z,14.90
2018-06-17T00:23:52.089Z,14.90
2018-06-17T00:26:20.285Z,14.80
2018-06-17T00:28:48.496Z,14.90
2018-06-17T00:31:16.700Z,14.90
2018-06-17T00:33:44.915Z,14.90
2018-06-17T00:36:13.127Z,14.90
2018-06-17T00:38:41.352Z,14.90
2018-06-17T00:43:37.515Z,14.90
2018-06-17T00:46:05.783Z,14.90
2018-06-17T00:48:33.972Z,14.90
2018-06-17T00:51:02.168Z,14.90
2018-06-17T00:53:30.382Z,14.90
2018-06-17T00:55:58.588Z,14.90
2018-06-17T00:58:26.790Z,14.90
2018-06-17T01:00:54.997Z,14.90
2018-06-17T01:03:23.184Z,14.90
2018-06-17T01:05:51.380Z,14.90
2018-06-17T01:08:19.590Z,14.90
2018-06-17T01:10:47.821Z,14.90
2018-06-17T01:13:16.008Z,14.90
2018-06-17T01:15:44.209Z,14.90
2018-06-17T01:18:12.425Z,14.90
2018-06-17T01:20:40.613Z,14.90
2018-06-17T01:23:08.824Z,14.80
2018-06-17T01:25:37.013Z,14.80
2018-06-17T01:28:05.238Z,14.80
2018-06-17T01:30:33.447Z,14.70
2018-06-17T01:33:01.658Z,14.70
2018-06-17T01:35:29.884Z,14.70
2018-06-17T01:37:58.092Z,14.60
2018-06-17T01:40:26.297Z,14.60
2018-06-17T01:42:54.493Z,14.60
2018-06-17T01:45:22.697Z,14.50
2018-06-17T01:47:51.208Z,14.50
2018-06-17T01:50:19.477Z,14.50
2018-06-17T01:52:47.668Z,14.50
2018-06-17T01:55:15.865Z,14.50
2018-06-17T01:57:44.043Z,14.60
2018-06-17T02:00:12.766Z,14.60
2018-06-17T02:02:41.449Z,14.60
2018-06-17T02:05:14.964Z,14.60
2018-06-17T02:07:48.618Z,14.60
2018-06-17T02:11:24.708Z,14.60
2018-06-17T02:13:54.361Z,14.60
2018-06-17T02:16:22.570Z,14.60
2018-06-17T02:18:50.762Z,14.60
2018-06-17T02:21:18.993Z,14.60
2018-06-17T02:23:47.192Z,14.60
2018-06-17T02:26:15.380Z,14.60
2018-06-17T02:28:43.568Z,14.50
2018-06-17T02:31:11.802Z,14.50
2018-06-17T02:33:39.997Z,14.50
2018-06-17T02:36:08.207Z,14.40
2018-06-17T02:38:36.422Z,14.40
2018-06-17T02:41:04.640Z,14.30
2018-06-17T02:43:39.404Z,14.20
2018-06-17T02:46:12.946Z,14.20
2018-06-17T02:48:46.709Z,14.10
2018-06-17T02:51:20.323Z,14.10
2018-06-17T02:53:53.728Z,14.00
2018-06-17T02:56:21.923Z,14.00
2018-06-17T02:58:50.123Z,13.90
2018-06-17T03:01:18.335Z,13.90
2018-06-17T03:03:46.579Z,13.90
2018-06-17T03:06:14.713Z,13.90
2018-06-17T03:08:42.926Z,13.80
2018-06-17T03:11:11.142Z,13.90
2018-06-17T03:13:39.387Z,13.80
2018-06-17T03:16:07.585Z,13.80
2018-06-17T03:18:35.803Z,13.80
2018-06-17T03:21:04.138Z,13.80
2018-06-17T03:23:32.305Z,13.80
2018-06-17T03:26:05.858Z,13.80
2018-06-17T03:28:39.574Z,13.80
2018-06-17T03:31:12.810Z,13.80
2018-06-17T03:33:46.522Z,13.80
2018-06-17T03:36:15.720Z,13.80
2018-06-17T03:38:43.904Z,13.80
2018-06-17T03:41:12.695Z,13.80
2018-06-17T03:43:40.881Z,13.80
2018-06-17T03:46:09.353Z,13.80
2018-06-17T03:48:37.521Z,13.80
2018-06-17T03:51:05.715Z,13.80
2018-06-17T03:53:33.914Z,13.90
2018-06-17T03:56:02.090Z,13.90
2018-06-17T03:58:30.269Z,13.90
2018-06-17T04:00:58.452Z,13.90
2018-06-17T04:03:26.633Z,13.90
2018-06-17T04:05:55.028Z,14.00
2018-06-17T04:08:23.222Z,14.00
2018-06-17T04:10:51.408Z,14.00
2018-06-17T04:13:19.609Z,14.00
2018-06-17T04:15:47.785Z,14.00
2018-06-17T04:18:15.965Z,14.00
2018-06-17T04:20:44.160Z,14.00
2018-06-17T04:23:12.361Z,14.10
2018-06-17T04:25:40.646Z,14.20
2018-06-17T04:28:08.732Z,14.20
2018-06-17T04:30:36.962Z,14.20
2018-06-17T04:33:05.124Z,14.30
2018-06-17T04:35:33.312Z,14.40
2018-06-17T04:38:01.517Z,14.40
2018-06-17T04:40:29.681Z,14.50
2018-06-17T04:42:57.896Z,14.60
2018-06-17T04:45:26.076Z,14.60
2018-06-17T04:47:54.260Z,14.60
2018-06-17T04:50:22.467Z,14.70
2018-06-17T04:52:50.875Z,14.80
2018-06-17T04:55:19.205Z,14.80
2018-06-17T04:57:47.377Z,14.90
2018-06-17T05:00:15.541Z,14.90
2018-06-17T05:02:43.721Z,15.00
2018-06-17T05:05:12.000Z,15.00
2018-06-17T05:07:40.188Z,15.10
2018-06-17T05:10:08.439Z,15.20
2018-06-17T05:12:36.685Z,15.20
2018-06-17T05:15:05.109Z,15.30
2018-06-17T05:17:33.334Z,15.30
2018-06-17T05:20:01.496Z,15.40
2018-06-17T05:22:29.678Z,15.40
2018-06-17T05:24:57.850Z,15.50
2018-06-17T05:27:26.053Z,15.50
2018-06-17T05:29:54.217Z,15.50
2018-06-17T05:32:28.902Z,15.50
2018-06-17T05:34:57.086Z,15.50
2018-06-17T05:37:25.261Z,15.60
2018-06-17T05:39:53.429Z,15.70
2018-06-17T05:42:21.614Z,15.70
2018-06-17T05:44:49.780Z,15.80
2018-06-17T05:47:17.961Z,15.90
2018-06-17T05:49:46.149Z,16.00
2018-06-17T05:52:14.321Z,16.10
2018-06-17T05:54:42.550Z,16.20
2018-06-17T05:57:10.777Z,16.30
2018-06-17T05:59:38.959Z,16.50
2018-06-17T06:02:07.180Z,16.60
2018-06-17T06:04:35.378Z,16.70
2018-06-17T06:07:03.886Z,16.80
2018-06-17T06:09:32.059Z,16.90
2018-06-17T06:12:00.251Z,17.00
2018-06-17T06:14:28.408Z,17.10
2018-06-17T06:16:56.888Z,17.20
2018-06-17T06:19:25.005Z,17.20
2018-06-17T06:21:53.213Z,17.20
2018-06-17T06:24:21.372Z,17.20
2018-06-17T06:26:49.595Z,17.20
2018-06-17T06:29:22.010Z,17.20
2018-06-17T06:31:50.213Z,17.10
2018-06-17T06:34:18.381Z,17.10
2018-06-17T06:36:46.585Z,17.10
2018-06-17T06:39:14.780Z,17.10
2018-06-17T06:41:42.967Z,17.10
2018-06-17T06:44:11.142Z,17.00
2018-06-17T06:46:39.381Z,17.00
2018-06-17T06:49:07.553Z,17.00
2018-06-17T06:51:36.173Z,17.00
2018-06-17T06:54:04.405Z,17.10
2018-06-17T06:56:32.726Z,17.10
2018-06-17T06:59:00.929Z,17.20
2018-06-17T07:01:40.537Z,17.30
2018-06-17T07:04:20.010Z,17.30
2018-06-17T07:09:33.612Z,17.50
2018-06-17T07:12:01.846Z,17.50
2018-06-17T07:14:30.128Z,17.60
2018-06-17T07:17:09.626Z,17.60
2018-06-17T07:19:37.817Z,17.60
2018-06-17T07:22:06.017Z,17.60
2018-06-17T07:24:34.194Z,17.60
2018-06-17T07:27:13.782Z,17.70
2018-06-17T07:29:43.728Z,17.70
2018-06-17T07:32:11.910Z,17.80
2018-06-17T07:34:40.119Z,17.90
2018-06-17T07:37:08.310Z,17.90
2018-06-17T07:39:48.565Z,17.90
2018-06-17T07:42:16.764Z,18.00
2018-06-17T07:44:44.934Z,18.10
2018-06-17T07:47:13.121Z,18.20
2018-06-17T07:49:52.654Z,18.30
2018-06-17T07:52:33.534Z,18.30
2018-06-17T07:55:01.733Z,18.20
2018-06-17T07:57:31.068Z,18.20
2018-06-17T07:59:59.256Z,18.10
2018-06-17T08:02:27.441Z,18.10
2018-06-17T08:04:55.652Z,18.00
2018-06-17T08:07:23.840Z,18.00
2018-06-17T08:09:52.098Z,17.90
2018-06-17T08:12:20.312Z,17.90
2018-06-17T08:14:48.540Z,17.90
2018-06-17T08:17:16.746Z,17.90
2018-06-17T08:19:44.931Z,17.90
2018-06-17T08:22:13.101Z,17.90
2018-06-17T08:24:41.351Z,18.00
2018-06-17T08:27:10.497Z,18.10
2018-06-17T08:29:38.702Z,18.30
2018-06-17T08:32:06.869Z,18.40
2018-06-17T08:34:35.070Z,18.60
2018-06-17T08:37:03.244Z,18.80
2018-06-17T08:39:31.434Z,18.90
2018-06-17T08:41:59.641Z,19.00
2018-06-17T08:44:27.895Z,19.10
2018-06-17T08:46:56.088Z,19.20
2018-06-17T08:49:24.305Z,19.30
2018-06-17T08:51:52.496Z,19.30
2018-06-17T08:54:20.705Z,19.30
2018-06-17T08:56:48.873Z,19.30
2018-06-17T08:59:17.118Z,19.40
2018-06-17T09:01:45.329Z,19.40
2018-06-17T09:04:13.499Z,19.50
2018-06-17T09:06:41.713Z,19.50
2018-06-17T09:09:11.161Z,19.50
2018-06-17T09:11:39.535Z,19.60
2018-06-17T09:14:07.735Z,19.70
2018-06-17T09:16:36.121Z,19.80
2018-06-17T09:19:04.303Z,19.90
2018-06-17T09:21:32.494Z,19.90
2018-06-17T09:24:00.720Z,19.80
2018-06-17T09:26:28.916Z,19.80
2018-06-17T09:28:57.108Z,19.70
2018-06-17T09:31:25.503Z,19.70
2018-06-17T09:33:54.083Z,19.60
2018-06-17T09:36:22.262Z,19.60
2018-06-17T09:38:50.520Z,19.60
2018-06-17T09:41:18.760Z,19.70
2018-06-17T09:43:46.960Z,19.80
2018-06-17T09:46:15.159Z,20.00
2018-06-17T09:48:43.312Z,20.30
2018-06-17T09:51:11.500Z,20.40
2018-06-17T09:53:39.684Z,20.40
2018-06-17T09:56:07.901Z,20.40
2018-06-17T09:58:36.140Z,20.40
2018-06-17T10:01:04.338Z,20.30
2018-06-17T10:03:32.534Z,20.20
2018-06-17T10:06:00.737Z,20.20
2018-06-17T10:08:28.944Z,20.10
2018-06-17T10:11:03.477Z,20.00
2018-06-17T10:13:32.930Z,19.90
2018-06-17T10:16:01.185Z,19.90
2018-06-17T10:18:29.833Z,19.90
2018-06-17T10:20:58.198Z,20.00
2018-06-17T10:23:26.443Z,20.20
2018-06-17T10:25:54.649Z,20.30
2018-06-17T10:28:24.140Z,20.40
2018-06-17T10:30:53.035Z,20.40
2018-06-17T10:33:21.462Z,20.40
2018-06-17T10:35:49.705Z,20.40
2018-06-17T10:38:17.920Z,20.50
2018-06-17T10:40:46.239Z,20.70
2018-06-17T10:43:15.587Z,20.80
2018-06-17T10:45:43.859Z,21.10
2018-06-17T10:48:12.406Z,21.30
2018-06-17T10:50:40.728Z,21.50
2018-06-17T10:53:09.079Z,21.80
2018-06-17T10:55:37.371Z,21.90
2018-06-17T10:58:05.517Z,22.00
2018-06-17T11:00:33.725Z,22.00
2018-06-17T11:03:01.914Z,22.00
2018-06-17T11:05:30.341Z,22.00
2018-06-17T11:07:58.471Z,22.00
2018-06-17T11:10:26.641Z,21.80
2018-06-17T11:12:54.898Z,21.60
2018-06-17T11:15:23.058Z,21.30
2018-06-17T11:17:51.268Z,21.20
2018-06-17T11:20:19.473Z,21.10
2018-06-17T11:22:47.656Z,21.10
2018-06-17T11:25:15.847Z,21.30
2018-06-17T11:27:44.029Z,21.50
2018-06-17T11:30:12.221Z,21.80
2018-06-17T11:32:40.397Z,22.00
2018-06-17T11:35:08.546Z,22.20
2018-06-17T11:37:37.110Z,22.20
2018-06-17T11:40:05.282Z,22.10
2018-06-17T11:42:33.453Z,22.00
2018-06-17T11:45:09.157Z,22.00
2018-06-17T11:47:37.351Z,22.00
2018-06-17T11:50:05.527Z,22.00
2018-06-17T11:52:33.688Z,22.10
2018-06-17T11:55:01.881Z,22.10
2018-06-17T11:57:30.061Z,22.10
2018-06-17T11:59:58.237Z,22.20
2018-06-17T12:02:34.865Z,22.20
2018-06-17T12:05:17.093Z,22.20
2018-06-17T12:07:57.910Z,22.30
2018-06-17T12:10:26.093Z,22.60
2018-06-17T12:12:54.272Z,23.00
2018-06-17T12:15:22.446Z,23.10
2018-06-17T12:17:50.650Z,23.10
2018-06-17T12:20:18.829Z,23.00
2018-06-17T12:22:47.018Z,22.80
2018-06-17T12:25:15.189Z,22.70
2018-06-17T12:27:43.370Z,22.60
2018-06-17T12:30:11.554Z,22.50
2018-06-17T12:32:39.730Z,22.50
2018-06-17T12:35:07.914Z,22.60
2018-06-17T12:37:36.092Z,22.70
2018-06-17T12:40:04.294Z,22.60
2018-06-17T12:42:32.514Z,22.60
2018-06-17T12:45:00.692Z,22.40
2018-06-17T12:47:28.873Z,22.30
2018-06-17T12:49:57.086Z,22.10
2018-06-17T12:52:25.248Z,22.00
2018-06-17T12:54:53.435Z,21.90
2018-06-17T12:57:21.768Z,21.80
2018-06-17T12:59:49.954Z,21.60
2018-06-17T13:02:18.147Z,21.50
2018-06-17T13:04:46.312Z,21.50
2018-06-17T13:07:14.489Z,21.40
2018-06-17T13:09:42.670Z,21.40
2018-06-17T13:12:10.869Z,21.40
2018-06-17T13:14:39.064Z,21.40
2018-06-17T13:17:07.228Z,21.60
2018-06-17T13:19:35.415Z,22.00
2018-06-17T13:22:03.596Z,22.10
2018-06-17T13:24:31.776Z,22.10
2018-06-17T13:26:59.960Z,22.20
2018-06-17T13:29:28.180Z,22.30
2018-06-17T13:34:24.280Z,22.40
2018-06-17T13:36:52.457Z,22.30
2018-06-17T13:39:20.637Z,22.10
2018-06-17T13:41:48.806Z,22.00
2018-06-17T13:44:16.991Z,21.80
2018-06-17T13:46:45.161Z,21.70
2018-06-17T13:49:13.361Z,21.60
2018-06-17T13:51:41.562Z,21.70
2018-06-17T13:54:09.896Z,21.80
2018-06-17T13:56:38.058Z,22.00
2018-06-17T13:59:06.240Z,22.00
2018-06-17T14:01:34.441Z,22.00
2018-06-17T14:04:02.624Z,22.00
2018-06-17T14:06:30.776Z,21.90
2018-06-17T14:08:58.989Z,21.80
2018-06-17T14:11:27.169Z,21.80
2018-06-17T14:13:55.367Z,21.70
2018-06-17T14:16:23.561Z,21.60
2018-06-17T14:18:51.738Z,21.50
2018-06-17T14:21:19.909Z,21.50
2018-06-17T14:23:48.094Z,21.40
2018-06-17T14:26:16.277Z,21.40
2018-06-17T14:28:44.458Z,21.30
2018-06-17T14:31:12.711Z,21.20
2018-06-17T14:33:40.863Z,21.00
2018-06-17T14:36:09.077Z,20.90
2018-06-17T14:38:37.275Z,20.80
2018-06-17T14:41:10.821Z,20.70
2018-06-17T14:43:44.481Z,20.70
2018-06-17T14:46:18.353Z,20.70
2018-06-17T14:48:52.074Z,20.70
2018-06-17T14:51:25.613Z,20.70
2018-06-17T14:53:53.815Z,20.70
2018-06-17T14:56:22.057Z,20.50
2018-06-17T14:58:50.264Z,20.50
2018-06-17T15:01:18.485Z,20.40
2018-06-17T15:03:47.947Z,20.30
2018-06-17T15:06:16.118Z,20.20
2018-06-17T15:08:45.005Z,20.10
2018-06-17T15:11:13.337Z,20.00
2018-06-17T15:13:41.556Z,19.90
2018-06-17T15:16:09.735Z,19.90
2018-06-17T15:18:37.945Z,19.90
2018-06-17T15:21:06.121Z,19.90
2018-06-17T15:23:34.324Z,19.80
2018-06-17T15:26:02.557Z,19.80
2018-06-17T15:28:30.786Z,19.90
2018-06-17T15:31:04.393Z,19.80
2018-06-17T15:33:37.887Z,19.80
2018-06-17T15:36:11.593Z,19.80
2018-06-17T15:38:45.133Z,19.80
2018-06-17T15:41:18.805Z,19.80
2018-06-17T15:43:46.995Z,19.90
2018-06-17T15:46:15.181Z,19.90
2018-06-17T15:48:43.349Z,19.90
2018-06-17T15:51:11.580Z,19.90
2018-06-17T15:53:39.761Z,19.90
2018-06-17T15:56:07.949Z,19.90
2018-06-17T15:58:36.133Z,19.90
2018-06-17T16:01:04.337Z,19.90
2018-06-17T16:03:32.497Z,19.90
2018-06-17T16:06:00.690Z,19.90
2018-06-17T16:08:28.895Z,19.80
2018-06-17T16:10:57.179Z,19.80
2018-06-17T16:13:30.931Z,19.70
2018-06-17T16:16:04.528Z,19.60
2018-06-17T16:18:41.027Z,19.60
2018-06-17T16:21:09.582Z,19.60
2018-06-17T16:23:37.758Z,19.70
2018-06-17T16:26:05.949Z,19.70
2018-06-17T16:28:34.134Z,19.80
2018-06-17T16:31:02.321Z,19.80
2018-06-17T16:33:30.488Z,19.70
2018-06-17T16:35:58.675Z,19.70
2018-06-17T16:38:26.849Z,19.70
2018-06-17T16:40:55.033Z,19.60
2018-06-17T16:43:23.227Z,19.50
2018-06-17T16:45:51.436Z,19.50
2018-06-17T16:48:19.654Z,19.50
2018-06-17T16:50:53.139Z,19.50
2018-06-17T16:53:26.666Z,19.60
2018-06-17T16:56:00.314Z,19.70
2018-06-17T16:58:33.757Z,19.80
2018-06-17T17:01:01.945Z,19.90
2018-06-17T17:03:30.132Z,19.90
2018-06-17T17:05:58.315Z,20.00
2018-06-17T17:08:26.501Z,20.00
2018-06-17T17:10:54.701Z,20.00
2018-06-17T17:13:22.906Z,20.00
2018-06-17T17:15:51.103Z,19.90
2018-06-17T17:18:19.644Z,19.90
2018-06-17T17:20:47.817Z,19.80
2018-06-17T17:23:16.017Z,19.70
2018-06-17T17:25:45.239Z,19.60
2018-06-17T17:28:13.438Z,19.50
2018-06-17T17:30:45.529Z,19.50
2018-06-17T17:33:19.041Z,19.40
2018-06-17T17:35:52.553Z,19.30
2018-06-17T17:38:27.237Z,19.20
2018-06-17T17:40:58.537Z,19.20
2018-06-17T17:43:26.922Z,19.20
2018-06-17T17:46:00.575Z,19.10
2018-06-17T17:48:28.914Z,19.10
2018-06-17T17:50:57.084Z,19.00
2018-06-17T17:53:25.272Z,19.00
2018-06-17T17:55:53.450Z,18.90
2018-06-17T17:58:22.747Z,18.90
2018-06-17T18:00:50.928Z,18.90
2018-06-17T18:03:19.161Z,18.80
2018-06-17T18:05:47.346Z,18.80
2018-06-17T18:08:15.530Z,18.80
2018-06-17T18:10:43.761Z,18.80
2018-06-17T18:13:12.018Z,18.70
2018-06-17T18:15:40.143Z,18.70
2018-06-17T18:18:08.532Z,18.70
2018-06-17T18:20:36.769Z,18.60
2018-06-17T18:23:04.984Z,18.60
2018-06-17T18:25:38.749Z,18.60
2018-06-17T18:28:12.893Z,18.60
2018-06-17T18:30:46.529Z,18.50
2018-06-17T18:33:20.211Z,18.50
2018-06-17T18:35:53.981Z,18.50
2018-06-17T18:38:22.194Z,18.40
2018-06-17T18:40:50.397Z,18.30
2018-06-17T18:43:18.604Z,18.30
2018-06-17T18:45:47.134Z,18.30
2018-06-17T18:48:15.348Z,18.30
2018-06-17T18:50:43.552Z,18.30
2018-06-17T18:53:11.760Z,18.20
2018-06-17T18:55:39.940Z,18.20
2018-06-17T18:58:08.158Z,18.20
2018-06-17T19:00:36.357Z,18.10
2018-06-17T19:03:04.656Z,18.10
2018-06-17T19:05:32.861Z,18.00
2018-06-17T19:08:01.061Z,18.00
2018-06-17T19:10:34.769Z,18.00
2018-06-17T19:13:08.317Z,18.00
2018-06-17T19:15:41.986Z,18.00
2018-06-17T19:18:12.398Z,17.90
2018-06-17T19:20:41.003Z,17.90
2018-06-17T19:23:09.218Z,17.80
2018-06-17T19:25:37.489Z,17.80
2018-06-17T19:28:05.712Z,17.80
2018-06-17T19:30:33.900Z,17.70
2018-06-17T19:33:02.097Z,17.70
2018-06-17T19:35:30.274Z,17.60
2018-06-17T19:37:58.491Z,17.60
2018-06-17T19:40:26.644Z,17.60
2018-06-17T19:42:54.833Z,17.60
2018-06-17T19:45:23.414Z,17.50
2018-06-17T19:47:51.773Z,17.50
2018-06-17T19:50:25.254Z,17.40
2018-06-17T19:52:58.877Z,17.40
2018-06-17T19:55:32.601Z,17.30
2018-06-17T19:58:06.113Z,17.30
2018-06-17T20:00:36.314Z,17.20
2018-06-17T20:03:04.914Z,17.20
2018-06-17T20:05:33.397Z,17.20
2018-06-17T20:08:01.573Z,17.20
2018-06-17T20:10:29.954Z,17.10
2018-06-17T20:12:58.154Z,17.10
2018-06-17T20:15:26.415Z,17.10
2018-06-17T20:17:55.077Z,17.00
2018-06-17T20:22:59.936Z,17.00
2018-06-17T20:25:28.161Z,17.00
2018-06-17T20:27:56.376Z,16.90
2018-06-17T20:30:24.694Z,16.90
2018-06-17T20:32:58.832Z,16.80
2018-06-17T20:35:32.450Z,16.80
2018-06-17T20:38:05.948Z,16.80
2018-06-17T20:40:39.633Z,16.70
2018-06-17T20:43:13.337Z,16.70
2018-06-17T20:45:48.228Z,16.60
2018-06-17T20:48:16.400Z,16.60
2018-06-17T20:50:44.585Z,16.60
2018-06-17T20:53:12.780Z,16.50
2018-06-17T20:55:40.965Z,16.50
2018-06-17T20:58:09.166Z,16.40
2018-06-17T21:00:37.359Z,16.40
2018-06-17T21:03:05.605Z,16.30
2018-06-17T21:05:33.811Z,16.30
2018-06-17T21:08:01.989Z,16.20
2018-06-17T21:10:30.170Z,16.20
2018-06-17T21:12:58.361Z,16.20
2018-06-17T21:15:26.557Z,16.10
2018-06-17T21:17:54.876Z,16.10
2018-06-17T21:20:28.392Z,16.10
2018-06-17T21:23:01.885Z,16.10
2018-06-17T21:25:35.526Z,16.10
2018-06-17T21:28:03.693Z,16.10
2018-06-17T21:30:31.878Z,16.10
2018-06-17T21:33:00.081Z,16.20
2018-06-17T21:35:28.273Z,16.10
2018-06-17T21:37:56.448Z,16.10
2018-06-17T21:40:24.616Z,16.10
2018-06-17T21:42:52.794Z,16.10
2018-06-17T21:45:20.987Z,16.10
2018-06-17T21:47:49.167Z,16.10
2018-06-17T21:50:17.371Z,16.00
2018-06-17T21:52:45.558Z,16.00
2018-06-17T21:55:13.741Z,16.00
2018-06-17T21:57:41.937Z,16.00
2018-06-17T22:00:10.474Z,16.00
2018-06-17T22:02:43.645Z,16.00
2018-06-17T22:05:12.035Z,16.00
2018-06-17T22:07:45.620Z,16.00
2018-06-17T22:10:19.333Z,16.00
2018-06-17T22:12:52.805Z,16.00
2018-06-17T22:15:26.498Z,16.00
2018-06-17T22:17:55.410Z,15.90
2018-06-17T22:20:23.596Z,15.90
2018-06-17T22:25:19.732Z,15.90
2018-06-17T22:27:47.953Z,15.90
2018-06-17T22:30:16.153Z,15.90
2018-06-17T22:32:44.340Z,15.90
2018-06-17T22:35:12.535Z,15.90
2018-06-17T22:37:40.727Z,15.80
2018-06-17T22:40:08.922Z,15.80
2018-06-17T22:42:37.441Z,15.80
2018-06-17T22:45:05.953Z,15.80
2018-06-17T22:47:39.625Z,15.80
2018-06-17T22:50:08.420Z,15.80
2018-06-17T22:52:48.588Z,15.70
2018-06-17T22:57:50.330Z,15.70
2018-06-17T23:00:23.868Z,15.70
2018-06-17T23:02:57.501Z,15.70
2018-06-17T23:05:31.086Z,15.70
2018-06-17T23:08:04.689Z,15.70
2018-06-17T23:10:32.882Z,15.60
2018-06-17T23:13:01.073Z,15.60
2018-06-17T23:15:29.287Z,15.60
2018-06-17T23:17:57.493Z,15.60
2018-06-17T23:20:25.694Z,15.50
2018-06-17T23:22:53.925Z,15.50
2018-06-17T23:25:22.134Z,15.50
2018-06-17T23:27:50.316Z,15.50
2018-06-17T23:30:18.542Z,15.40
2018-06-17T23:32:46.825Z,15.40
2018-06-17T23:35:15.014Z,15.40
2018-06-17T23:37:43.197Z,15.40
2018-06-17T23:40:11.484Z,15.40
2018-06-17T23:42:39.723Z,15.40
2018-06-17T23:45:07.913Z,15.40
2018-06-17T23:47:41.590Z,15.40
2018-06-17T23:50:15.095Z,15.40
2018-06-17T23:52:48.765Z,15.30
2018-06-17T23:55:22.457Z,15.30
2018-06-17T23:57:50.638Z,15.30
